createdAt,value
2022-11-24T00:00:28.985Z,4.02
2022-11-24T00:01:32.189Z,4.14
2022-11-24T00:02:34.671Z,4.11
2022-11-24T00:03:37.165Z,4.16
2022-11-24T00:04:39.391Z,4.21
2022-11-24T00:05:41.573Z,4.09
2022-11-24T00:06:43.732Z,4.15
2022-11-24T00:07:45.945Z,4.18
2022-11-24T00:08:48.357Z,3.92
2022-11-24T00:09:50.715Z,3.93
2022-11-24T00:10:52.881Z,4.02
2022-11-24T00:11:55.067Z,3.91
2022-11-24T00:12:57.295Z,3.93
2022-11-24T00:14:00.522Z,3.94
2022-11-24T00:15:02.814Z,3.92
2022-11-24T00:16:13.066Z,3.84
2022-11-24T00:17:15.472Z,3.85
2022-11-24T00:18:17.623Z,3.94
2022-11-24T00:19:20.216Z,3.75
2022-11-24T00:20:22.522Z,3.69
2022-11-24T00:21:26.171Z,3.61
2022-11-24T00:22:28.509Z,3.58
2022-11-24T00:23:30.710Z,3.43
2022-11-24T00:24:33.238Z,3.59
2022-11-24T00:25:35.538Z,3.71
2022-11-24T00:26:37.797Z,3.86
2022-11-24T00:27:39.965Z,3.78
2022-11-24T00:28:43.672Z,3.73
2022-11-24T00:29:46.024Z,3.85
2022-11-24T00:30:48.228Z,3.96
2022-11-24T00:31:50.462Z,4.01
2022-11-24T00:32:53.112Z,4.01
2022-11-24T00:33:57.774Z,4.03
2022-11-24T00:35:00.248Z,3.89
2022-11-24T00:36:02.454Z,4.04
2022-11-24T00:37:04.621Z,4.10
2022-11-24T00:38:07.039Z,4.09
2022-11-24T00:39:14.237Z,4.06
2022-11-24T00:40:16.707Z,3.83
2022-11-24T00:41:18.876Z,3.77
2022-11-24T00:42:21.074Z,3.88
2022-11-24T00:43:23.262Z,3.97
2022-11-24T00:44:25.628Z,3.82
2022-11-24T00:45:28.159Z,3.91
2022-11-24T00:46:30.840Z,3.91
2022-11-24T00:47:33.345Z,3.86
2022-11-24T00:48:35.728Z,3.93
2022-11-24T00:49:37.920Z,4.06
2022-11-24T00:50:40.262Z,4.00
2022-11-24T00:51:42.471Z,3.93
2022-11-24T00:52:44.626Z,3.95
2022-11-24T00:53:47.213Z,3.71
2022-11-24T00:54:49.565Z,3.58
2022-11-24T00:55:52.318Z,3.55
2022-11-24T00:56:54.459Z,3.52
2022-11-24T00:57:56.786Z,3.54
2022-11-24T00:58:59.094Z,3.35
2022-11-24T01:00:01.716Z,3.26
2022-11-24T01:01:10.648Z,3.11
2022-11-24T01:02:12.845Z,3.21
2022-11-24T01:03:16.799Z,3.16
2022-11-24T01:04:18.935Z,3.16
2022-11-24T01:05:21.490Z,3.15
2022-11-24T01:06:27.620Z,3.19
2022-11-24T01:07:30.921Z,3.33
2022-11-24T01:08:33.458Z,3.38
2022-11-24T01:09:35.639Z,3.52
2022-11-24T01:10:38.033Z,3.53
2022-11-24T01:11:58.711Z,3.54
2022-11-24T01:13:01.327Z,3.70
2022-11-24T01:14:03.474Z,3.82
2022-11-24T01:15:06.629Z,3.58
2022-11-24T01:16:21.497Z,3.33
2022-11-24T01:17:23.700Z,3.19
2022-11-24T01:18:25.860Z,2.95
2022-11-24T01:19:28.117Z,2.93
2022-11-24T01:20:31.466Z,2.94
2022-11-24T01:21:33.718Z,3.05
2022-11-24T01:22:36.108Z,3.15
2022-11-24T01:23:38.592Z,3.31
2022-11-24T01:24:41.128Z,3.36
2022-11-24T01:25:43.525Z,3.29
2022-11-24T01:26:45.894Z,3.24
2022-11-24T01:27:48.251Z,3.25
2022-11-24T01:28:58.289Z,3.10
2022-11-24T01:30:00.656Z,2.99
2022-11-24T01:31:06.429Z,3.08
2022-11-24T01:32:08.658Z,3.00
2022-11-24T01:33:11.026Z,3.04
2022-11-24T01:34:13.486Z,3.10
2022-11-24T01:35:15.713Z,3.28
2022-11-24T01:36:18.110Z,3.40
2022-11-24T01:37:20.267Z,3.44
2022-11-24T01:38:22.631Z,3.50
2022-11-24T01:39:24.785Z,3.33
2022-11-24T01:40:26.945Z,3.35
2022-11-24T01:41:29.468Z,3.11
2022-11-24T01:42:46.231Z,3.07
2022-11-24T01:43:49.936Z,3.05
2022-11-24T01:45:31.021Z,2.94
2022-11-24T01:46:46.172Z,2.98
2022-11-24T01:47:48.399Z,3.05
2022-11-24T01:49:18.001Z,3.25
2022-11-24T01:50:20.534Z,3.38
2022-11-24T01:51:26.821Z,3.39
2022-11-24T01:52:37.292Z,3.30
2022-11-24T01:53:44.104Z,3.18
2022-11-24T01:54:53.486Z,3.05
2022-11-24T01:55:55.883Z,3.05
2022-11-24T01:57:04.134Z,3.07
2022-11-24T01:58:14.004Z,3.02
2022-11-24T01:59:18.402Z,2.92
2022-11-24T02:00:20.862Z,2.99
2022-11-24T02:01:23.392Z,2.99
2022-11-24T02:02:29.513Z,3.02
2022-11-24T02:03:37.316Z,3.14
2022-11-24T02:04:40.655Z,3.26
2022-11-24T02:06:00.590Z,3.43
2022-11-24T02:07:05.631Z,3.47
2022-11-24T02:08:16.693Z,3.35
2022-11-24T02:09:21.514Z,3.39
2022-11-24T02:10:23.943Z,3.45
2022-11-24T02:11:28.854Z,3.51
2022-11-24T02:12:32.248Z,3.45
2022-11-24T02:13:37.947Z,3.24
2022-11-24T02:14:41.955Z,3.23
2022-11-24T02:15:44.208Z,3.31
2022-11-24T02:16:50.132Z,3.27
2022-11-24T02:17:52.323Z,3.34
2022-11-24T02:18:54.757Z,3.37
2022-11-24T02:20:04.192Z,3.42
2022-11-24T02:21:07.254Z,3.36
2022-11-24T02:22:37.747Z,3.24
2022-11-24T02:23:49.910Z,3.07
2022-11-24T02:25:36.472Z,3.03
2022-11-24T02:26:41.640Z,3.08
2022-11-24T02:27:50.715Z,3.23
2022-11-24T02:28:56.316Z,3.17
2022-11-24T02:29:59.289Z,3.31
2022-11-24T02:31:02.449Z,3.35
2022-11-24T02:32:07.422Z,3.37
2022-11-24T02:33:12.138Z,3.36
2022-11-24T02:34:14.571Z,3.34
2022-11-24T02:35:17.464Z,3.33
2022-11-24T02:36:19.608Z,3.47
2022-11-24T02:37:21.755Z,3.46
2022-11-24T02:38:35.075Z,3.49
2022-11-24T02:39:37.394Z,3.51
2022-11-24T02:40:43.452Z,3.52
2022-11-24T02:41:53.741Z,3.54
2022-11-24T02:43:05.951Z,3.48
2022-11-24T02:44:08.226Z,3.42
2022-11-24T02:45:11.881Z,3.45
2022-11-24T02:46:14.399Z,3.46
2022-11-24T02:47:17.017Z,3.46
2022-11-24T02:48:19.586Z,3.45
2022-11-24T02:49:21.755Z,3.49
2022-11-24T02:50:24.076Z,3.44
2022-11-24T02:51:29.599Z,3.39
2022-11-24T02:52:31.764Z,3.44
2022-11-24T02:53:34.213Z,3.42
2022-11-24T02:54:36.657Z,3.51
2022-11-24T02:55:39.100Z,3.69
2022-11-24T02:56:41.540Z,3.79
2022-11-24T02:57:43.693Z,3.85
2022-11-24T02:58:46.343Z,3.83
2022-11-24T02:59:48.551Z,3.85
2022-11-24T03:00:54.195Z,3.76
2022-11-24T03:01:56.383Z,3.66
2022-11-24T03:02:58.729Z,3.66
2022-11-24T03:04:01.318Z,3.62
2022-11-24T03:05:03.794Z,3.62
2022-11-24T03:06:06.205Z,3.62
2022-11-24T03:07:08.424Z,3.71
2022-11-24T03:08:10.874Z,3.69
2022-11-24T03:09:13.075Z,3.71
2022-11-24T03:10:15.982Z,3.66
2022-11-24T03:11:18.195Z,3.67
2022-11-24T03:12:20.688Z,3.70
2022-11-24T03:13:23.262Z,3.63
2022-11-24T03:14:25.637Z,3.59
2022-11-24T03:15:27.886Z,3.61
2022-11-24T03:16:30.057Z,3.62
2022-11-24T03:17:32.240Z,3.51
2022-11-24T03:18:34.404Z,3.47
2022-11-24T03:19:36.612Z,3.48
2022-11-24T03:20:38.780Z,3.47
2022-11-24T03:21:40.948Z,3.65
2022-11-24T03:22:43.148Z,3.79
2022-11-24T03:23:45.906Z,3.68
2022-11-24T03:24:48.305Z,3.52
2022-11-24T03:25:50.653Z,3.25
2022-11-24T03:26:52.852Z,3.26
2022-11-24T03:27:57.070Z,3.28
2022-11-24T03:28:59.232Z,3.37
2022-11-24T03:30:01.646Z,3.43
2022-11-24T03:31:04.330Z,3.44
2022-11-24T03:32:06.627Z,3.40
2022-11-24T03:33:08.981Z,3.40
2022-11-24T03:34:11.193Z,3.46
2022-11-24T03:35:13.390Z,3.44
2022-11-24T03:36:16.932Z,3.59
2022-11-24T03:37:19.224Z,3.66
2022-11-24T03:38:21.624Z,3.63
2022-11-24T03:39:23.777Z,3.54
2022-11-24T03:40:25.969Z,3.49
2022-11-24T03:41:28.358Z,3.42
2022-11-24T03:42:30.518Z,3.36
2022-11-24T03:43:32.876Z,3.31
2022-11-24T03:44:35.251Z,3.29
2022-11-24T03:45:45.821Z,3.27
2022-11-24T03:46:48.834Z,3.28
2022-11-24T03:47:52.299Z,3.25
2022-11-24T03:48:54.472Z,3.23
2022-11-24T03:49:56.637Z,3.19
2022-11-24T03:51:01.249Z,3.17
2022-11-24T03:52:07.769Z,3.14
2022-11-24T03:53:10.871Z,3.11
2022-11-24T03:54:13.071Z,3.13
2022-11-24T03:55:15.419Z,3.13
2022-11-24T03:56:17.572Z,3.13
2022-11-24T03:57:19.743Z,3.13
2022-11-24T03:58:21.951Z,3.07
2022-11-24T03:59:24.165Z,3.04
2022-11-24T04:00:26.428Z,2.98
2022-11-24T04:01:29.149Z,3.01
2022-11-24T04:02:31.368Z,3.03
2022-11-24T04:03:33.603Z,3.01
2022-11-24T04:04:36.149Z,2.98
2022-11-24T04:05:38.374Z,2.99
2022-11-24T04:06:41.143Z,2.97
2022-11-24T04:07:43.376Z,2.96
2022-11-24T04:08:45.592Z,2.94
2022-11-24T04:09:48.018Z,2.87
2022-11-24T04:10:52.095Z,2.88
2022-11-24T04:12:13.367Z,2.76
2022-11-24T04:13:17.541Z,2.82
2022-11-24T04:14:20.895Z,2.80
2022-11-24T04:15:23.085Z,2.72
2022-11-24T04:16:25.529Z,2.75
2022-11-24T04:17:28.769Z,2.82
2022-11-24T04:18:31.269Z,2.95
2022-11-24T04:19:33.633Z,3.10
2022-11-24T04:20:35.894Z,3.18
2022-11-24T04:21:38.052Z,3.21
2022-11-24T04:22:40.845Z,3.17
2022-11-24T04:23:43.008Z,3.01
2022-11-24T04:24:45.388Z,2.86
2022-11-24T04:25:47.698Z,2.84
2022-11-24T04:26:49.888Z,2.85
2022-11-24T04:27:54.159Z,2.83
2022-11-24T04:28:56.347Z,2.79
2022-11-24T04:29:58.541Z,2.76
2022-11-24T04:31:04.871Z,2.67
2022-11-24T04:32:07.095Z,2.56
2022-11-24T04:33:09.294Z,2.56
2022-11-24T04:34:11.695Z,2.62
2022-11-24T04:35:14.306Z,2.57
2022-11-24T04:36:16.730Z,2.54
2022-11-24T04:37:19.114Z,2.50
2022-11-24T04:39:24.246Z,2.47
2022-11-24T04:39:44.858Z,2.44
2022-11-24T04:40:47.389Z,2.47
2022-11-24T04:41:49.743Z,2.52
2022-11-24T04:42:54.241Z,2.47
2022-11-24T04:43:56.496Z,2.38
2022-11-24T04:44:58.749Z,2.43
2022-11-24T04:46:01.693Z,2.48
2022-11-24T04:47:04.391Z,2.45
2022-11-24T04:48:06.592Z,2.42
2022-11-24T04:49:11.683Z,2.37
2022-11-24T04:50:14.089Z,2.31
2022-11-24T04:51:16.326Z,2.31
2022-11-24T04:52:20.576Z,2.34
2022-11-24T04:53:22.942Z,2.39
2022-11-24T04:54:25.158Z,2.32
2022-11-24T04:55:27.633Z,2.15
2022-11-24T04:56:29.816Z,1.96
2022-11-24T04:57:33.228Z,1.95
2022-11-24T04:58:35.890Z,1.89
2022-11-24T04:59:38.077Z,1.81
2022-11-24T05:00:41.217Z,1.78
2022-11-24T05:01:44.851Z,1.67
2022-11-24T05:02:47.444Z,1.63
2022-11-24T05:03:49.667Z,1.58
2022-11-24T05:04:51.903Z,1.73
2022-11-24T05:05:54.283Z,1.71
2022-11-24T05:06:56.505Z,1.64
2022-11-24T05:07:59.945Z,1.64
2022-11-24T05:09:02.171Z,1.62
2022-11-24T05:10:22.950Z,1.68
2022-11-24T05:11:25.143Z,1.69
2022-11-24T05:12:31.199Z,1.89
2022-11-24T05:13:34.078Z,2.07
2022-11-24T05:14:39.435Z,2.18
2022-11-24T05:15:42.453Z,2.18
2022-11-24T05:16:44.993Z,2.07
2022-11-24T05:17:47.258Z,2.01
2022-11-24T05:18:49.806Z,2.00
2022-11-24T05:19:51.976Z,2.07
2022-11-24T05:20:54.175Z,2.04
2022-11-24T05:21:58.022Z,1.95
2022-11-24T05:23:05.196Z,1.90
2022-11-24T05:24:07.657Z,1.88
2022-11-24T05:25:10.328Z,1.74
2022-11-24T05:26:12.752Z,1.72
2022-11-24T05:27:15.142Z,1.75
2022-11-24T05:28:18.491Z,1.77
2022-11-24T05:29:20.834Z,1.65
2022-11-24T05:30:23.025Z,1.50
2022-11-24T05:31:25.241Z,1.40
2022-11-24T05:32:27.404Z,1.43
2022-11-24T05:33:33.221Z,1.49
2022-11-24T05:34:35.715Z,1.65
2022-11-24T05:35:38.198Z,1.81
2022-11-24T05:36:52.893Z,1.91
2022-11-24T05:37:55.209Z,2.03
2022-11-24T05:38:57.793Z,1.91
2022-11-24T05:39:59.974Z,1.66
2022-11-24T05:41:04.342Z,1.78
2022-11-24T05:42:26.546Z,1.74
2022-11-24T05:43:29.211Z,1.65
2022-11-24T05:44:32.103Z,1.55
2022-11-24T05:45:34.574Z,1.50
2022-11-24T05:46:37.035Z,1.39
2022-11-24T05:47:40.635Z,1.49
2022-11-24T05:48:42.806Z,1.68
2022-11-24T05:49:45.444Z,1.78
2022-11-24T05:50:54.645Z,1.82
2022-11-24T05:51:56.835Z,1.96
2022-11-24T05:53:09.452Z,2.04
2022-11-24T05:54:11.800Z,2.08
2022-11-24T05:55:15.330Z,2.05
2022-11-24T05:56:17.523Z,2.02
2022-11-24T05:57:19.753Z,1.92
2022-11-24T05:58:21.928Z,2.00
2022-11-24T05:59:24.351Z,1.88
2022-11-24T06:00:27.262Z,1.95
2022-11-24T06:01:29.500Z,2.08
2022-11-24T06:02:32.237Z,2.13
2022-11-24T06:03:34.683Z,1.96
2022-11-24T06:04:37.599Z,2.02
2022-11-24T06:05:40.199Z,2.06
2022-11-24T06:06:42.429Z,2.03
2022-11-24T06:07:44.969Z,2.07
2022-11-24T06:08:47.427Z,1.71
2022-11-24T06:09:49.790Z,1.77
2022-11-24T06:10:51.943Z,1.86
2022-11-24T06:11:54.344Z,1.96
2022-11-24T06:12:57.011Z,2.08
2022-11-24T06:13:59.237Z,2.12
2022-11-24T06:15:01.986Z,2.11
2022-11-24T06:16:04.445Z,2.08
2022-11-24T06:17:07.131Z,2.02
2022-11-24T06:18:09.372Z,1.87
2022-11-24T06:19:11.868Z,1.58
2022-11-24T06:20:14.208Z,1.61
2022-11-24T06:21:17.292Z,1.64
2022-11-24T06:22:19.822Z,1.71
2022-11-24T06:23:21.991Z,1.75
2022-11-24T06:24:24.442Z,1.87
2022-11-24T06:25:27.628Z,2.02
2022-11-24T06:26:29.821Z,1.78
2022-11-24T06:27:32.386Z,1.77
2022-11-24T06:28:34.897Z,1.78
2022-11-24T06:29:37.095Z,1.63
2022-11-24T06:30:39.464Z,1.65
2022-11-24T06:31:41.796Z,1.76
2022-11-24T06:32:49.448Z,1.88
2022-11-24T06:33:54.332Z,1.72
2022-11-24T06:34:56.520Z,1.71
2022-11-24T06:36:01.899Z,1.55
2022-11-24T06:37:04.113Z,1.42
2022-11-24T06:38:09.089Z,1.51
2022-11-24T06:39:11.560Z,1.90
2022-11-24T06:40:13.984Z,2.16
2022-11-24T06:41:16.972Z,2.23
2022-11-24T06:42:19.330Z,2.44
2022-11-24T06:43:23.263Z,2.41
2022-11-24T06:44:25.476Z,2.75
2022-11-24T06:45:27.960Z,2.45
2022-11-24T06:46:31.576Z,2.22
2022-11-24T06:47:33.801Z,1.99
2022-11-24T06:48:36.371Z,1.92
2022-11-24T06:49:38.562Z,1.91
2022-11-24T06:50:40.937Z,1.83
2022-11-24T06:51:43.234Z,1.43
2022-11-24T06:52:45.408Z,1.33
2022-11-24T06:53:47.787Z,1.57
2022-11-24T06:54:49.950Z,1.67
2022-11-24T06:55:53.218Z,1.78
2022-11-24T06:56:59.553Z,1.79
2022-11-24T06:58:01.723Z,1.85
2022-11-24T06:59:04.225Z,1.86
2022-11-24T07:00:07.946Z,1.91
2022-11-24T07:01:14.245Z,1.92
2022-11-24T07:02:16.485Z,1.91
2022-11-24T07:03:19.611Z,1.94
2022-11-24T07:04:21.877Z,1.91
2022-11-24T07:05:24.286Z,1.75
2022-11-24T07:06:28.632Z,1.87
2022-11-24T07:07:30.896Z,1.90
2022-11-24T07:08:33.307Z,1.75
2022-11-24T07:09:35.486Z,1.46
2022-11-24T07:10:37.905Z,1.14
2022-11-24T07:11:41.219Z,1.31
2022-11-24T07:12:43.465Z,1.30
2022-11-24T07:13:46.479Z,1.30
2022-11-24T07:14:48.700Z,1.38
2022-11-24T07:15:51.010Z,1.38
2022-11-24T07:16:53.661Z,1.48
2022-11-24T07:17:56.115Z,1.47
2022-11-24T07:18:58.606Z,1.58
2022-11-24T07:20:00.794Z,1.47
2022-11-24T07:21:05.878Z,1.31
2022-11-24T07:22:08.202Z,1.28
2022-11-24T07:23:10.494Z,1.31
2022-11-24T07:24:12.947Z,1.09
2022-11-24T07:25:15.259Z,1.06
2022-11-24T07:26:18.462Z,1.12
2022-11-24T07:27:20.668Z,1.09
2022-11-24T07:28:22.904Z,1.16
2022-11-24T07:29:25.113Z,1.22
2022-11-24T07:30:28.550Z,1.24
2022-11-24T07:31:31.044Z,1.22
2022-11-24T07:32:33.654Z,1.16
2022-11-24T07:33:36.774Z,1.17
2022-11-24T07:34:38.942Z,1.22
2022-11-24T07:35:41.508Z,1.26
2022-11-24T07:36:45.304Z,1.36
2022-11-24T07:37:47.519Z,1.36
2022-11-24T07:38:50.395Z,1.46
2022-11-24T07:39:52.570Z,1.51
2022-11-24T07:40:55.062Z,1.57
2022-11-24T07:41:59.461Z,1.59
2022-11-24T07:43:01.767Z,1.67
2022-11-24T07:44:05.929Z,1.68
2022-11-24T07:45:08.449Z,1.59
2022-11-24T07:46:13.404Z,1.71
2022-11-24T07:47:16.097Z,1.74
2022-11-24T07:48:18.295Z,1.87
2022-11-24T07:49:20.552Z,1.97
2022-11-24T07:50:22.760Z,2.03
2022-11-24T07:51:24.955Z,1.99
2022-11-24T07:52:27.771Z,1.97
2022-11-24T07:53:30.792Z,1.83
2022-11-24T07:54:33.428Z,1.91
2022-11-24T07:55:36.011Z,1.95
2022-11-24T07:56:38.155Z,2.14
2022-11-24T07:57:41.240Z,2.23
2022-11-24T07:58:45.949Z,2.14
2022-11-24T07:59:50.577Z,2.06
2022-11-24T08:00:53.096Z,2.19
2022-11-24T08:01:55.266Z,2.45
2022-11-24T08:02:57.849Z,2.67
2022-11-24T08:04:01.778Z,2.67
2022-11-24T08:05:04.316Z,2.61
2022-11-24T08:06:24.096Z,2.76
2022-11-24T08:07:29.254Z,2.65
2022-11-24T08:08:34.353Z,2.41
2022-11-24T08:09:36.570Z,2.56
2022-11-24T08:10:38.714Z,2.49
2022-11-24T08:11:41.529Z,2.68
2022-11-24T08:12:44.003Z,2.69
2022-11-24T08:13:46.501Z,2.81
2022-11-24T08:14:50.364Z,2.78
2022-11-24T08:15:52.708Z,2.87
2022-11-24T08:16:55.209Z,2.91
2022-11-24T08:18:01.390Z,2.88
2022-11-24T08:19:03.570Z,2.92
2022-11-24T08:20:06.654Z,2.99
2022-11-24T08:21:13.165Z,3.19
2022-11-24T08:22:15.579Z,3.23
2022-11-24T08:23:17.792Z,3.23
2022-11-24T08:24:20.003Z,3.34
2022-11-24T08:25:25.143Z,3.33
2022-11-24T08:26:28.293Z,2.91
2022-11-24T08:27:30.953Z,2.97
2022-11-24T08:28:33.306Z,2.99
2022-11-24T08:29:35.523Z,2.91
2022-11-24T08:30:37.743Z,3.15
2022-11-24T08:31:40.013Z,3.21
2022-11-24T08:32:42.639Z,3.26
2022-11-24T08:33:44.880Z,3.26
2022-11-24T08:34:47.074Z,3.37
2022-11-24T08:35:49.462Z,3.34
2022-11-24T08:36:52.348Z,3.49
2022-11-24T08:37:57.291Z,3.49
2022-11-24T08:39:03.448Z,3.43
2022-11-24T08:40:06.276Z,3.58
2022-11-24T08:41:10.924Z,3.57
2022-11-24T08:42:13.106Z,3.69
2022-11-24T08:43:15.461Z,3.85
2022-11-24T08:44:18.352Z,3.93
2022-11-24T08:45:22.446Z,3.99
2022-11-24T08:46:25.491Z,4.27
2022-11-24T08:47:27.924Z,4.40
2022-11-24T08:48:30.948Z,4.57
2022-11-24T08:49:33.125Z,4.69
2022-11-24T08:50:37.485Z,4.63
2022-11-24T08:51:39.694Z,4.75
2022-11-24T08:52:42.430Z,4.87
2022-11-24T08:53:44.819Z,5.01
2022-11-24T08:54:47.494Z,5.10
2022-11-24T08:55:50.092Z,5.11
2022-11-24T08:56:52.472Z,5.01
2022-11-24T08:57:54.705Z,4.91
2022-11-24T08:58:57.698Z,4.93
2022-11-24T08:59:59.906Z,4.94
2022-11-24T09:01:14.164Z,4.72
2022-11-24T09:02:16.480Z,4.63
2022-11-24T09:03:19.058Z,4.67
2022-11-24T09:04:21.243Z,4.68
2022-11-24T09:05:51.231Z,4.74
2022-11-24T09:06:49.827Z,4.93
2022-11-24T09:07:52.096Z,5.10
2022-11-24T09:08:55.005Z,5.29
2022-11-24T09:09:57.231Z,5.43
2022-11-24T09:11:04.423Z,5.50
2022-11-24T09:12:14.348Z,5.53
2022-11-24T09:13:17.059Z,5.55
2022-11-24T09:14:19.421Z,5.65
2022-11-24T09:15:21.900Z,5.66
2022-11-24T09:16:27.207Z,5.72
2022-11-24T09:17:29.729Z,5.71
2022-11-24T09:18:31.918Z,5.67
2022-11-24T09:19:34.642Z,5.70
2022-11-24T09:20:37.002Z,5.76
2022-11-24T09:21:39.263Z,5.80
2022-11-24T09:22:43.054Z,5.79
2022-11-24T09:23:47.445Z,5.89
2022-11-24T09:24:49.697Z,5.93
2022-11-24T09:25:51.849Z,6.03
2022-11-24T09:26:55.479Z,6.18
2022-11-24T09:27:59.909Z,6.14
2022-11-24T09:29:05.459Z,6.15
2022-11-24T09:30:08.446Z,6.31
2022-11-24T09:31:12.876Z,6.32
2022-11-24T09:32:15.204Z,6.35
2022-11-24T09:33:17.568Z,6.44
2022-11-24T09:34:19.957Z,6.43
2022-11-24T09:35:22.220Z,6.43
2022-11-24T09:36:24.784Z,6.44
2022-11-24T09:37:32.437Z,6.54
2022-11-24T09:38:35.558Z,6.62
2022-11-24T09:39:37.775Z,6.65
2022-11-24T09:40:39.946Z,6.74
2022-11-24T09:41:54.046Z,6.68
2022-11-24T09:43:06.895Z,6.65
2022-11-24T09:44:33.324Z,6.69
2022-11-24T09:47:09.719Z,6.43
2022-11-24T09:48:22.819Z,6.44
2022-11-24T09:49:37.114Z,6.40
2022-11-24T09:50:39.777Z,6.39
2022-11-24T09:51:47.052Z,6.39
2022-11-24T09:53:26.917Z,6.33
2022-11-24T09:54:30.978Z,6.40
2022-11-24T09:55:33.167Z,6.36
2022-11-24T09:56:40.578Z,6.42
2022-11-24T09:57:43.940Z,6.51
2022-11-24T09:58:50.683Z,6.64
2022-11-24T09:59:55.667Z,6.66
2022-11-24T10:00:58.686Z,6.66
2022-11-24T10:02:03.392Z,6.53
2022-11-24T10:03:07.153Z,6.51
2022-11-24T10:04:39.911Z,6.43
2022-11-24T10:05:43.273Z,6.39
2022-11-24T10:06:55.380Z,6.36
2022-11-24T10:08:20.061Z,6.48
2022-11-24T10:09:55.081Z,6.56
2022-11-24T10:10:59.848Z,6.64
2022-11-24T10:12:19.961Z,6.65
2022-11-24T10:13:46.737Z,6.50
2022-11-24T10:15:25.486Z,6.49
2022-11-24T10:16:46.068Z,6.51
2022-11-24T10:18:07.683Z,6.46
2022-11-24T10:19:37.458Z,6.48
2022-11-24T10:21:09.631Z,6.43
2022-11-24T10:22:14.668Z,6.52
2022-11-24T10:23:42.235Z,6.55
2022-11-24T10:25:19.150Z,6.70
2022-11-24T10:26:46.927Z,6.73
2022-11-24T10:27:56.211Z,6.68
2022-11-24T10:28:58.386Z,6.62
2022-11-24T10:30:01.482Z,6.56
2022-11-24T10:31:24.443Z,6.46
2022-11-24T10:32:29.838Z,6.45
2022-11-24T10:33:32.301Z,6.45
2022-11-24T10:34:40.128Z,6.40
2022-11-24T10:36:07.787Z,6.45
2022-11-24T10:37:40.618Z,6.43
2022-11-24T10:38:52.778Z,6.45
2022-11-24T10:40:05.260Z,6.46
2022-11-24T10:41:13.310Z,6.38
2022-11-24T10:42:26.073Z,6.51
2022-11-24T10:43:28.838Z,6.66
2022-11-24T10:44:31.235Z,6.77
2022-11-24T10:45:33.503Z,6.76
2022-11-24T10:46:39.484Z,6.78
2022-11-24T10:47:43.310Z,6.77
2022-11-24T10:48:52.639Z,6.82
2022-11-24T10:50:13.150Z,6.87
2022-11-24T10:51:27.584Z,6.97
2022-11-24T10:52:36.715Z,7.06
2022-11-24T10:53:41.415Z,6.87
2022-11-24T10:55:01.320Z,6.97
2022-11-24T10:56:05.343Z,7.06
2022-11-24T10:57:08.249Z,6.97
2022-11-24T10:58:17.429Z,6.98
2022-11-24T10:59:26.019Z,6.98
2022-11-24T11:00:33.531Z,6.96
2022-11-24T11:01:35.897Z,6.87
2022-11-24T11:02:39.972Z,6.87
2022-11-24T11:03:53.874Z,6.97
2022-11-24T11:04:56.300Z,7.09
2022-11-24T11:06:11.796Z,7.06
2022-11-24T11:07:21.567Z,6.93
2022-11-24T11:08:29.510Z,6.96
2022-11-24T11:09:31.784Z,6.93
2022-11-24T11:10:34.323Z,6.91
2022-11-24T11:11:39.904Z,6.81
2022-11-24T11:12:44.650Z,6.92
2022-11-24T11:14:09.546Z,6.99
2022-11-24T11:15:30.816Z,7.10
2022-11-24T11:16:40.291Z,7.20
2022-11-24T11:17:44.260Z,7.20
2022-11-24T11:18:49.513Z,7.31
2022-11-24T11:19:58.454Z,7.53
2022-11-24T11:21:05.523Z,7.62
2022-11-24T11:22:31.030Z,7.53
2022-11-24T11:23:36.072Z,7.46
2022-11-24T11:24:40.625Z,7.46
2022-11-24T11:25:43.771Z,7.44
2022-11-24T11:26:46.212Z,7.40
2022-11-24T11:27:48.900Z,7.42
2022-11-24T11:34:57.609Z,7.22
2022-11-24T11:36:10.807Z,7.17
2022-11-24T11:37:15.373Z,7.04
2022-11-24T11:38:18.870Z,7.03
2022-11-24T11:39:29.867Z,7.10
2022-11-24T11:40:32.396Z,7.14
2022-11-24T11:41:40.341Z,7.06
2022-11-24T11:43:03.910Z,6.86
2022-11-24T11:44:29.501Z,6.81
2022-11-24T11:45:45.178Z,6.85
2022-11-24T11:46:47.588Z,6.87
2022-11-24T11:47:52.737Z,6.89
2022-11-24T11:48:55.121Z,7.07
2022-11-24T11:49:57.747Z,7.04
2022-11-24T11:51:32.194Z,7.12
2022-11-24T11:52:52.749Z,6.96
2022-11-24T11:54:22.294Z,7.04
2022-11-24T11:55:37.081Z,7.09
2022-11-24T11:56:52.966Z,7.15
2022-11-24T11:58:14.132Z,7.16
2022-11-24T11:59:31.637Z,7.01
2022-11-24T12:00:39.679Z,6.93
2022-11-24T12:01:49.825Z,6.94
2022-11-24T12:03:24.122Z,6.75
2022-11-24T12:04:44.756Z,6.58
2022-11-24T12:05:52.629Z,6.66
2022-11-24T12:07:02.291Z,6.86
2022-11-24T12:08:24.553Z,7.04
2022-11-24T12:09:36.271Z,7.18
2022-11-24T12:11:02.937Z,7.17
2022-11-24T12:12:26.200Z,7.18
2022-11-24T12:13:43.528Z,7.08
2022-11-24T12:15:11.354Z,7.00
2022-11-24T12:16:27.803Z,6.94
2022-11-24T12:17:41.711Z,6.82
2022-11-24T12:19:01.005Z,6.85
2022-11-24T12:20:41.650Z,7.02
2022-11-24T12:22:09.388Z,7.10
2022-11-24T12:23:40.716Z,7.05
2022-11-24T12:24:53.123Z,6.80
2022-11-24T12:26:06.142Z,6.86
2022-11-24T12:27:23.272Z,6.95
2022-11-24T12:28:46.719Z,7.00
2022-11-24T12:30:03.991Z,7.03
2022-11-24T12:31:08.211Z,7.03
2022-11-24T12:32:34.670Z,7.11
2022-11-24T12:33:50.960Z,6.94
2022-11-24T12:35:03.512Z,6.61
2022-11-24T12:36:21.207Z,6.24
2022-11-24T12:37:45.627Z,6.14
2022-11-24T12:38:56.641Z,6.23
2022-11-24T12:40:14.758Z,6.37
2022-11-24T12:42:55.095Z,6.48
2022-11-24T12:44:00.041Z,6.54
2022-11-24T12:45:48.476Z,6.53
2022-11-24T12:47:01.077Z,6.56
2022-11-24T12:48:28.703Z,6.73
2022-11-24T12:49:38.564Z,6.57
2022-11-24T12:50:43.829Z,6.34
2022-11-24T12:51:53.200Z,6.36
2022-11-24T12:53:04.656Z,6.39
2022-11-24T12:54:13.984Z,6.55
2022-11-24T12:55:23.110Z,6.74
2022-11-24T12:56:56.140Z,6.95
2022-11-24T12:58:09.337Z,6.96
2022-11-24T12:59:16.501Z,6.89
2022-11-24T13:00:26.281Z,6.84
2022-11-24T13:01:33.793Z,6.88
2022-11-24T13:02:57.293Z,6.91
2022-11-24T13:04:36.032Z,6.95
2022-11-24T13:05:52.471Z,7.08
2022-11-24T13:07:02.395Z,7.12
2022-11-24T13:08:05.935Z,7.26
2022-11-24T13:09:10.479Z,7.09
2022-11-24T13:10:55.273Z,7.10
2022-11-24T13:11:49.953Z,7.21
2022-11-24T13:13:12.153Z,7.32
2022-11-24T13:14:37.284Z,7.16
2022-11-24T13:17:38.318Z,7.40
2022-11-24T13:18:57.282Z,7.49
2022-11-24T13:20:21.323Z,7.52
2022-11-24T13:21:30.851Z,7.38
2022-11-24T13:22:33.076Z,7.30
2022-11-24T13:23:36.862Z,7.29
2022-11-24T13:24:40.057Z,7.15
2022-11-24T13:26:15.322Z,7.18
2022-11-24T13:27:21.978Z,7.18
2022-11-24T13:29:13.441Z,7.29
2022-11-24T13:30:35.408Z,7.27
2022-11-24T13:31:37.712Z,7.30
2022-11-24T13:32:39.907Z,7.34
2022-11-24T13:33:42.165Z,7.41
2022-11-24T13:34:45.652Z,7.41
2022-11-24T13:36:03.081Z,7.30
2022-11-24T13:37:28.881Z,7.06
2022-11-24T13:38:52.455Z,6.94
2022-11-24T13:40:02.494Z,6.75
2022-11-24T13:41:27.751Z,6.76
2022-11-24T13:42:54.813Z,6.80
2022-11-24T13:44:15.130Z,6.72
2022-11-24T13:45:38.805Z,6.88
2022-11-24T13:47:05.722Z,6.98
2022-11-24T13:48:20.534Z,6.99
2022-11-24T13:49:24.104Z,6.93
2022-11-24T13:50:50.975Z,6.91
2022-11-24T13:51:57.040Z,6.79
2022-11-24T13:53:15.608Z,6.83
2022-11-24T13:54:18.124Z,6.77
2022-11-24T13:55:24.932Z,6.64
2022-11-24T13:56:29.759Z,6.52
2022-11-24T13:57:36.378Z,6.46
2022-11-24T13:58:49.590Z,6.48
2022-11-24T14:00:00.168Z,6.44
2022-11-24T14:01:20.641Z,6.53
2022-11-24T14:02:23.982Z,6.61
2022-11-24T14:03:30.386Z,6.67
2022-11-24T14:04:33.684Z,6.74
2022-11-24T14:05:39.161Z,6.69
2022-11-24T14:06:53.379Z,6.81
2022-11-24T14:07:56.319Z,6.87
2022-11-24T14:09:01.397Z,6.95
2022-11-24T14:10:03.842Z,6.97
2022-11-24T14:11:15.239Z,6.96
2022-11-24T14:12:25.215Z,6.97
2022-11-24T14:13:33.420Z,7.01
2022-11-24T14:14:35.720Z,7.12
2022-11-24T14:15:38.120Z,7.09
2022-11-24T14:16:40.517Z,7.09
2022-11-24T14:17:42.813Z,7.11
2022-11-24T14:18:48.976Z,7.15
2022-11-24T14:19:53.664Z,7.19
2022-11-24T14:20:56.878Z,7.20
2022-11-24T14:21:59.322Z,7.13
2022-11-24T14:23:01.948Z,7.16
2022-11-24T14:24:18.844Z,7.23
2022-11-24T14:25:31.985Z,7.11
2022-11-24T14:26:37.096Z,6.93
2022-11-24T14:27:40.078Z,6.84
2022-11-24T14:28:45.592Z,6.72
2022-11-24T14:29:59.055Z,6.74
2022-11-24T14:31:09.463Z,6.78
2022-11-24T14:32:16.364Z,6.82
2022-11-24T14:33:20.134Z,6.84
2022-11-24T14:34:24.779Z,6.82
2022-11-24T14:35:32.779Z,6.81
2022-11-24T14:36:35.093Z,6.80
2022-11-24T14:37:37.414Z,6.69
2022-11-24T14:38:39.737Z,6.61
2022-11-24T14:39:42.770Z,6.59
2022-11-24T14:40:44.989Z,6.56
2022-11-24T14:42:05.075Z,6.54
2022-11-24T14:43:21.197Z,6.52
2022-11-24T14:44:25.925Z,6.57
2022-11-24T14:45:28.126Z,6.60
2022-11-24T14:46:30.488Z,6.52
2022-11-24T14:47:44.678Z,6.53
2022-11-24T14:48:49.834Z,6.65
2022-11-24T14:49:53.121Z,6.56
2022-11-24T14:51:13.501Z,6.62
2022-11-24T14:52:19.450Z,6.67
2022-11-24T14:53:26.262Z,6.82
2022-11-24T14:54:29.059Z,6.85
2022-11-24T14:55:35.322Z,6.81
2022-11-24T14:56:39.116Z,6.82